Time;durP1;ratioP1;P1;durP2;ratioP2;P2;SDS_P1;SDS_P2;PMS_P1;PMS_P2;Temp;Humidity;BMP_temperature;BMP_pressure;BME280_temperature;BME280_humidity;BME280_pressure;Samples;Min_cycle;Max_cycle;Signal;HPM_P1;HPM_P2
2022/04/22 00:02:42;;;;;;;10.07;6.22;;;;;;;;;;4705755;30;20056;-87
2022/04/22 00:05:09;;;;;;;13.48;7.03;;;;;;;;;;4720406;30;20070;-86
2022/04/22 00:07:36;;;;;;;12.70;6.22;;;;;;;;;;4734518;30;20121;-86
2022/04/22 00:10:02;;;;;;;12.50;5.82;;;;;;;;;;4706816;30;20084;-86
2022/04/22 00:12:28;;;;;;;9.75;6.57;;;;;;;;;;4707130;30;20135;-86
2022/04/22 00:14:54;;;;;;;9.50;6.45;;;;;;;;;;4736482;30;20494;-86
2022/04/22 00:17:20;;;;;;;9.20;6.25;;;;;;;;;;4706615;30;20095;-86
2022/04/22 00:19:46;;;;;;;9.95;6.00;;;;;;;;;;4736223;30;20113;-86
2022/04/22 00:22:12;;;;;;;6.85;5.40;;;;;;;;;;4706065;30;20110;-87
2022/04/22 00:24:38;;;;;;;9.15;6.25;;;;;;;;;;4706063;30;20056;-86
2022/04/22 00:27:04;;;;;;;11.15;6.53;;;;;;;;;;4706310;30;20155;-86
2022/04/22 00:29:30;;;;;;;9.63;6.80;;;;;;;;;;4709307;30;20510;-86
2022/04/22 00:31:56;;;;;;;9.80;6.32;;;;;;;;;;4738191;30;20104;-86
2022/04/22 00:34:22;;;;;;;12.35;5.47;;;;;;;;;;4739458;30;20135;-86
2022/04/22 00:36:49;;;;;;;10.00;6.30;;;;;;;;;;4709586;30;20060;-86
2022/04/22 00:39:15;;;;;;;8.85;5.95;;;;;;;;;;4709722;30;20052;-86
2022/04/22 00:41:41;;;;;;;11.13;6.45;;;;;;;;;;4738604;30;20056;-87
2022/04/22 00:44:07;;;;;;;13.90;6.53;;;;;;;;;;4708992;30;20053;-86
2022/04/22 00:46:33;;;;;;;13.75;6.78;;;;;;;;;;4709966;30;20428;-87
2022/04/22 00:48:59;;;;;;;9.73;6.30;;;;;;;;;;4709173;30;20049;-86
2022/04/22 00:51:25;;;;;;;7.88;5.57;;;;;;;;;;4709588;30;20173;-86
2022/04/22 00:53:52;;;;;;;9.32;6.00;;;;;;;;;;4710120;30;20501;-86
2022/04/22 00:56:19;;;;;;;11.60;7.13;;;;;;;;;;4709071;30;20510;-86
2022/04/22 00:58:46;;;;;;;15.35;6.43;;;;;;;;;;4738250;30;20060;-86
2022/04/22 01:01:12;;;;;;;10.18;6.03;;;;;;;;;;4709934;30;20088;-86
2022/04/22 01:03:38;;;;;;;12.60;7.53;;;;;;;;;;4709702;30;20118;-85
2022/04/22 01:11:36;;;;;;;14.15;7.38;;;;;;;;;;4723116;30;20056;-86
2022/04/22 01:14:06;;;;;;;11.07;6.45;;;;;;;;;;4709231;30;20419;-85
2022/04/22 01:16:32;;;;;;;11.65;6.57;;;;;;;;;;4737222;30;20411;-86
2022/04/22 01:18:58;;;;;;;11.18;6.18;;;;;;;;;;4708302;30;20044;-86
2022/04/22 01:21:24;;;;;;;9.68;6.63;;;;;;;;;;4708790;30;20049;-86
2022/04/22 01:23:50;;;;;;;16.33;6.78;;;;;;;;;;4737639;30;20059;-86
2022/04/22 01:26:16;;;;;;;9.45;6.88;;;;;;;;;;4737732;30;20059;-86
2022/04/22 01:28:43;;;;;;;9.02;6.15;;;;;;;;;;4708789;30;20055;-86
2022/04/22 01:31:09;;;;;;;9.52;6.18;;;;;;;;;;4736815;30;20062;-86
2022/04/22 01:33:35;;;;;;;11.40;6.03;;;;;;;;;;4708791;30;20064;-86
2022/04/22 01:36:01;;;;;;;9.98;6.00;;;;;;;;;;4707830;30;20048;-86
2022/04/22 01:38:27;;;;;;;11.32;7.25;;;;;;;;;;4736551;30;20062;-85
2022/04/22 01:40:57;;;;;;;15.10;6.93;;;;;;;;;;4737269;30;20074;-86
2022/04/22 01:43:23;;;;;;;11.45;7.10;;;;;;;;;;4707754;30;20049;-86
2022/04/22 01:45:52;;;;;;;10.05;7.07;;;;;;;;;;4736671;30;20059;-86
2022/04/22 01:48:18;;;;;;;9.35;6.45;;;;;;;;;;4707511;30;20411;-86
2022/04/22 01:50:44;;;;;;;11.15;7.35;;;;;;;;;;4736260;30;20082;-85
2022/04/22 01:53:10;;;;;;;12.20;7.07;;;;;;;;;;4707161;30;20049;-86
2022/04/22 01:55:36;;;;;;;11.80;7.53;;;;;;;;;;4735953;30;20052;-86
2022/04/22 01:58:02;;;;;;;13.07;6.70;;;;;;;;;;4735690;30;20052;-86
2022/04/22 02:00:28;;;;;;;11.07;6.90;;;;;;;;;;4707513;30;20143;-85
2022/04/22 02:02:54;;;;;;;15.77;7.57;;;;;;;;;;4706893;30;20056;-86
2022/04/22 02:05:20;;;;;;;15.77;7.75;;;;;;;;;;4707168;30;20426;-86
2022/04/22 02:07:46;;;;;;;13.60;7.45;;;;;;;;;;4707061;30;20048;-86
2022/04/22 02:10:13;;;;;;;19.80;7.05;;;;;;;;;;4735884;30;20063;-86
2022/04/22 02:12:39;;;;;;;18.08;6.97;;;;;;;;;;4706987;30;20049;-86
2022/04/22 02:15:05;;;;;;;9.90;7.18;;;;;;;;;;4736074;30;20136;-87
2022/04/22 02:17:32;;;;;;;11.55;6.80;;;;;;;;;;4736304;30;20056;-86
2022/04/22 02:19:58;;;;;;;11.57;6.72;;;;;;;;;;4721504;30;20123;-86
2022/04/22 02:22:24;;;;;;;7.60;5.72;;;;;;;;;;4707468;30;20091;-86
2022/04/22 02:24:50;;;;;;;12.75;6.68;;;;;;;;;;4721530;30;20064;-86
2022/04/22 02:30:01;;;;;;;11.38;6.57;;;;;;;;;;4738120;30;20060;-85
2022/04/22 02:32:27;;;;;;;9.15;5.90;;;;;;;;;;4708822;30;20080;-85
2022/04/22 02:34:53;;;;;;;13.60;5.82;;;;;;;;;;4722757;30;20110;-86
2022/04/22 02:37:19;;;;;;;10.10;6.80;;;;;;;;;;4737674;30;20045;-86
2022/04/22 02:39:45;;;;;;;14.75;6.15;;;;;;;;;;4737040;30;20131;-86
2022/04/22 02:47:41;;;;;;;9.75;6.30;;;;;;;;;;4737948;30;20144;-86
2022/04/22 02:50:07;;;;;;;7.50;5.75;;;;;;;;;;4737364;30;20060;-86
2022/04/22 02:52:33;;;;;;;9.30;5.65;;;;;;;;;;4735897;30;20051;-86
2022/04/22 02:54:59;;;;;;;10.70;6.50;;;;;;;;;;4706901;30;20044;-86
2022/04/22 02:57:25;;;;;;;10.30;6.70;;;;;;;;;;4737075;30;20045;-86
2022/04/22 02:59:51;;;;;;;7.35;5.85;;;;;;;;;;4706767;30;20056;-86
2022/04/22 03:02:17;;;;;;;8.02;5.53;;;;;;;;;;4707089;30;20060;-86
2022/04/22 03:04:43;;;;;;;6.60;5.72;;;;;;;;;;4706747;30;20068;-86
2022/04/22 03:07:09;;;;;;;18.65;6.38;;;;;;;;;;4707317;30;20060;-86
2022/04/22 03:09:36;;;;;;;9.82;6.07;;;;;;;;;;4706415;30;20511;-86
2022/04/22 03:12:02;;;;;;;16.52;6.70;;;;;;;;;;4706179;30;20049;-86
2022/04/22 03:14:29;;;;;;;12.18;6.25;;;;;;;;;;4707546;30;20083;-85
2022/04/22 03:16:55;;;;;;;12.00;6.15;;;;;;;;;;4707946;30;20434;-86
2022/04/22 03:19:22;;;;;;;10.50;5.70;;;;;;;;;;4707099;30;20152;-85
2022/04/22 03:21:48;;;;;;;6.13;5.03;;;;;;;;;;4707478;30;20052;-85
2022/04/22 03:24:14;;;;;;;8.95;5.97;;;;;;;;;;4707438;30;20059;-85
2022/04/22 03:26:40;;;;;;;8.75;5.85;;;;;;;;;;4736658;30;20045;-85
2022/04/22 03:29:06;;;;;;;9.00;5.38;;;;;;;;;;4707725;30;20117;-86
2022/04/22 03:31:32;;;;;;;9.02;6.75;;;;;;;;;;4736917;30;20139;-85
2022/04/22 03:33:58;;;;;;;9.90;5.63;;;;;;;;;;4737997;30;20053;-85
2022/04/22 03:36:24;;;;;;;7.50;5.65;;;;;;;;;;4736171;30;20517;-87
2022/04/22 03:38:51;;;;;;;9.68;5.78;;;;;;;;;;4722105;30;20131;-86
2022/04/22 03:41:17;;;;;;;10.45;5.97;;;;;;;;;;4737327;30;20052;-86
2022/04/22 03:43:43;;;;;;;10.13;5.82;;;;;;;;;;4736170;30;20112;-86
2022/04/22 03:46:09;;;;;;;8.45;4.95;;;;;;;;;;4737563;30;20091;-86
2022/04/22 03:48:35;;;;;;;12.68;6.00;;;;;;;;;;4736789;30;20061;-86
2022/04/22 03:51:01;;;;;;;15.32;6.07;;;;;;;;;;4735555;30;20061;-86
2022/04/22 03:53:27;;;;;;;10.95;5.80;;;;;;;;;;4737732;30;20056;-86
2022/04/22 03:55:53;;;;;;;13.05;5.80;;;;;;;;;;4736698;30;20048;-86
2022/04/22 03:58:19;;;;;;;11.93;6.15;;;;;;;;;;4707197;30;20051;-85
2022/04/22 04:00:46;;;;;;;13.20;5.57;;;;;;;;;;4706433;30;20052;-86
2022/04/22 04:03:13;;;;;;;7.68;5.25;;;;;;;;;;4708103;30;20088;-86
2022/04/22 04:05:39;;;;;;;10.02;6.05;;;;;;;;;;4707980;30;20060;-86
2022/04/22 04:08:06;;;;;;;8.13;5.13;;;;;;;;;;4709372;30;20419;-87
2022/04/22 04:16:02;;;;;;;14.10;5.97;;;;;;;;;;4723203;30;20061;-86
2022/04/22 04:18:29;;;;;;;6.68;5.50;;;;;;;;;;4708343;30;20111;-86
2022/04/22 04:23:41;;;;;;;9.90;6.53;;;;;;;;;;4723045;30;20116;-87
2022/04/22 04:26:07;;;;;;;9.80;5.45;;;;;;;;;;4709454;30;20059;-86
2022/04/22 04:28:34;;;;;;;6.70;5.22;;;;;;;;;;4708899;30;20500;-86
2022/04/22 04:31:00;;;;;;;7.97;4.95;;;;;;;;;;4708499;30;20076;-86
2022/04/22 04:33:26;;;;;;;8.95;5.05;;;;;;;;;;4708670;30;20108;-86
2022/04/22 04:35:52;;;;;;;7.07;4.60;;;;;;;;;;4737857;30;20110;-86
2022/04/22 04:38:19;;;;;;;10.65;4.80;;;;;;;;;;4708802;30;20088;-87
2022/04/22 04:40:45;;;;;;;9.65;5.32;;;;;;;;;;4708139;30;20059;-86
2022/04/22 04:43:11;;;;;;;10.85;5.50;;;;;;;;;;4737044;30;20056;-86
2022/04/22 04:45:37;;;;;;;10.45;4.68;;;;;;;;;;4708649;30;20048;-86
2022/04/22 04:48:04;;;;;;;8.82;5.07;;;;;;;;;;4708406;30;20406;-86
2022/04/22 04:50:30;;;;;;;10.10;5.55;;;;;;;;;;4722424;30;20056;-86
2022/04/22 04:52:57;;;;;;;8.38;5.13;;;;;;;;;;4737893;30;20068;-87
2022/04/22 04:55:23;;;;;;;7.43;4.47;;;;;;;;;;4707271;30;20467;-86
2022/04/22 04:57:49;;;;;;;7.50;4.90;;;;;;;;;;4736942;30;20055;-86
2022/04/22 05:00:18;;;;;;;8.10;4.18;;;;;;;;;;4737595;30;20059;-86
2022/04/22 05:02:44;;;;;;;8.93;4.45;;;;;;;;;;4736689;30;20053;-86
2022/04/22 05:05:11;;;;;;;10.45;4.55;;;;;;;;;;4706922;30;20106;-85
2022/04/22 05:07:57;;;;;;;7.90;4.00;;;;;;;;;;4737251;30;20060;-86
2022/04/22 05:10:26;;;;;;;9.10;4.32;;;;;;;;;;4721877;30;20391;-86
2022/04/22 05:12:53;;;;;;;5.72;4.32;;;;;;;;;;4736511;30;20080;-87
2022/04/22 05:15:22;;;;;;;4.07;3.53;;;;;;;;;;4707282;30;20052;-86
2022/04/22 05:17:48;;;;;;;4.75;4.18;;;;;;;;;;4736329;30;20060;-86
2022/04/22 05:20:15;;;;;;;4.68;3.53;;;;;;;;;;4735928;30;20056;-86
2022/04/22 05:22:41;;;;;;;4.95;3.55;;;;;;;;;;4707787;30;20059;-86
2022/04/22 05:25:08;;;;;;;5.47;3.17;;;;;;;;;;4707316;30;20052;-86
2022/04/22 05:27:35;;;;;;;5.95;3.80;;;;;;;;;;4707418;30;20040;-86
2022/04/22 05:32:49;;;;;;;7.55;4.40;;;;;;;;;;4722518;30;20053;-86
2022/04/22 05:35:16;;;;;;;3.92;3.08;;;;;;;;;;4707504;30;20055;-86
2022/04/22 05:37:43;;;;;;;6.45;3.80;;;;;;;;;;4707067;30;20422;-86
2022/04/22 05:40:11;;;;;;;6.82;4.30;;;8.00;99.90;;;;;;4707900;30;20052;-86
2022/04/22 05:42:38;;;;;;;5.43;3.35;;;;;;;;;;4723700;30;20586;-86
2022/04/22 05:45:06;;;;;;;4.20;3.78;;;;;;;;;;4737542;30;20095;-86
2022/04/22 05:47:32;;;;;;;4.35;3.50;;;;;;;;;;4736610;30;20096;-86
2022/04/22 05:49:58;;;;;;;3.47;3.17;;;;;;;;;;4708636;30;20562;-86
2022/04/22 05:52:24;;;;;;;5.40;3.42;;;;;;;;;;4739213;30;20071;-86
2022/04/22 05:54:50;;;;;;;5.43;3.47;;;;;;;;;;4739285;30;20411;-86
2022/04/22 05:57:20;;;;;;;5.30;3.60;;;;;;;;;;4740516;30;20045;-86
2022/04/22 05:59:46;;;;;;;3.38;3.03;;;;;;;;;;4739821;30;20056;-86
2022/04/22 06:02:12;;;;;;;6.32;3.40;;;;;;;;;;4709628;30;20049;-86
2022/04/22 06:04:39;;;;;;;6.15;2.90;;;;;;;;;;4709302;30;20554;-86
2022/04/22 06:07:05;;;;;;;3.78;2.80;;;;;;;;;;4737538;30;20065;-86
2022/04/22 06:12:17;;;;;;;7.20;3.75;;;;;;;;;;4721777;30;20061;-86
2022/04/22 06:14:46;;;;;;;3.70;3.00;;;;;;;;;;4735822;30;20056;-86
2022/04/22 06:17:13;;;;;;;4.15;2.90;;;;;;;;;;4707165;30;20060;-86
2022/04/22 06:19:40;;;;;;;4.40;2.90;;;;;;;;;;4707212;30;20514;-86
2022/04/22 06:22:06;;;;;;;6.18;3.88;;;;;;;;;;4736176;30;20044;-86
2022/04/22 06:24:35;;;;;;;4.90;2.50;;;;;;;;;;4735455;30;20052;-86
2022/04/22 06:27:01;;;;;;;6.85;2.92;;;;;;;;;;4721674;30;20143;-86
2022/04/22 06:29:28;;;;;;;4.47;3.33;;;;;;;;;;4735808;30;20063;-86
2022/04/22 06:31:54;;;;;;;6.38;2.88;;;;;;;;;;4706959;30;20052;-86
2022/04/22 06:34:20;;;;;;;5.72;2.67;;;;;;;;;;4706892;30;20048;-87
2022/04/22 06:36:47;;;;;;;7.40;3.40;;;;;;;;;;4735363;30;20048;-87
2022/04/22 06:39:13;;;;;;;4.57;3.15;;;;;;;;;;4706653;30;20048;-87
2022/04/22 06:47:10;;;;;;;4.00;3.00;;;;;;;;;;4736789;30;20060;-86
2022/04/22 06:49:36;;;;;;;4.95;2.83;;;;;;;;;;4737912;30;20052;-87
2022/04/22 06:52:02;;;;;;;5.90;2.72;;;;;;;;;;4735507;30;20147;-86
2022/04/22 06:54:28;;;;;;;8.18;2.92;;;;;;;;;;4720750;30;20107;-87
2022/04/22 06:56:55;;;;;;;4.45;3.10;;;;;;;;;;4736336;30;20194;-85
2022/04/22 06:59:22;;;;;;;7.43;2.60;;;;;;;;;;4705971;30;20045;-87
2022/04/22 07:01:48;;;;;;;4.32;2.17;;;;;;;;;;4705852;30;20056;-87
2022/04/22 07:04:14;;;;;;;3.90;2.60;;;;;;;;;;4730861;30;20079;-86
2022/04/22 07:06:41;;;;;;;3.65;2.22;;;;;;;;;;4717364;30;20057;-87
2022/04/22 07:09:09;;;;;;;4.95;2.58;;;;;;;;;;4717783;30;20057;-86
2022/04/22 07:11:36;;;;;;;3.45;2.42;;;;;;;;;;4718203;30;20068;-86
2022/04/22 07:14:02;;;;;;;2.97;2.67;;;;;;;;;;4717931;30;20500;-86
2022/04/22 07:16:28;;;;;;;3.65;2.95;;;;;;;;;;4717784;30;20061;-87
2022/04/22 07:18:59;;;;;;;3.08;2.67;;;;;;;;;;4688733;30;20055;-87
2022/04/22 07:21:25;;;;;;;4.38;3.15;;;;;;;;;;4717814;30;20057;-86
2022/04/22 07:23:52;;;;;;;4.57;2.78;;;;;;;;;;4718841;30;20048;-87
2022/04/22 07:26:19;;;;;;;4.13;2.75;;;;;;;;;;4688252;30;20088;-87
2022/04/22 07:28:47;;;;;;;2.90;2.42;;;;;;;;;;4688462;30;20106;-87
2022/04/22 07:31:15;;;;;;;4.45;3.22;;;;;;;;;;4717565;30;20092;-86
2022/04/22 07:33:41;;;;;;;2.90;2.60;;;;;;;;;;4717486;30;20135;-86
2022/04/22 07:36:08;;;;;;;4.93;2.78;;;;;;;;;;4717201;30;20056;-87
2022/04/22 07:38:37;;;;;;;6.78;3.00;;;;;;;;;;4720829;30;20060;-87
2022/04/22 07:41:03;;;;;;;3.10;2.63;;;;;;;;;;4721587;30;20079;-86
2022/04/22 07:49:07;;;;;;;3.40;2.70;;;;;;;;;;4722188;30;20419;-87
2022/04/22 07:51:33;;;;;;;5.10;2.38;;;;;;;;;;4722099;30;20057;-87
2022/04/22 07:54:00;;;;;;;6.70;2.67;;;;;;;;;;4721923;30;20049;-87
2022/04/22 07:56:27;;;;;;;9.85;2.70;;;;;;;;;;4692222;30;20499;-86
2022/04/22 07:58:53;;;;;;;3.50;2.60;;;;;;;;;;4721454;30;20056;-86
2022/04/22 08:01:19;;;;;;;6.28;2.90;;;;;;;;;;4722026;30;20057;-87
2022/04/22 08:03:45;;;;;;;3.97;2.60;;;;;;;;;;4692610;30;20065;-86
2022/04/22 08:06:12;;;;;;;4.78;2.85;;;;;;;;;;4709253;30;20092;-87
2022/04/22 08:08:38;;;;;;;4.25;2.83;;;;;;;;;;4737879;30;20056;-86
2022/04/22 08:11:04;;;;;;;3.70;2.17;;;;;;;;;;4737500;30;20066;-87
2022/04/22 08:13:31;;;;;;;7.10;3.10;;;;;;;;;;4708400;30;20106;-85
2022/04/22 08:15:57;;;;;;;8.00;2.55;;;;;;;;;;4737410;30;20103;-85
2022/04/22 08:18:23;;;;;;;7.75;3.08;;;;;;;;;;4709211;30;20056;-86
2022/04/22 08:20:49;;;;;;;4.85;3.35;;;;;;;;;;4738569;30;20107;-86
2022/04/22 08:23:20;;;;;;;5.82;3.03;;;;;;;;;;4737817;30;20135;-86
2022/04/22 08:25:46;;;;;;;4.22;2.67;;;;;;;;;;4738475;30;20068;-85
2022/04/22 08:28:12;;;;;;;5.88;2.75;;;;;;;;;;4722868;30;20063;-86
2022/04/22 08:30:38;;;;;;;5.15;3.53;;;;;;;;;;4708255;30;20053;-85
2022/04/22 08:33:04;;;;;;;4.93;2.78;;;;;;;;;;4737037;30;20060;-85
2022/04/22 08:35:30;;;;;;;4.28;3.08;;;;;;;;;;4707885;30;20076;-86
2022/04/22 08:37:59;;;;;;;4.60;2.80;;;;;;;;;;4736629;30;20525;-86
2022/04/22 08:40:27;;;;;;;3.75;2.63;;;;;;;;;;4737100;30;20161;-86
2022/04/22 08:42:53;;;;;;;10.68;3.33;;;12.40;99.90;;;;;;4737058;30;20060;-86
2022/04/22 08:45:19;;;;;;;3.65;2.60;;;;;;;;;;4707593;30;20499;-86
2022/04/22 08:50:31;;;;;;;2.97;2.58;;;12.50;99.90;;;;;;4737840;30;20056;-86
2022/04/22 08:52:58;;;;;;;6.60;3.22;;;;;;;;;;4737974;30;20325;-86
2022/04/22 08:55:25;;;;;;;3.80;2.92;;;12.60;99.90;;;;;;4739236;30;20052;-86
2022/04/22 08:57:53;;;;;;;3.20;2.63;;;;;;;;;;4724367;30;20050;-86
2022/04/22 09:00:22;;;;;;;5.57;3.13;;;;;;;;;;4739999;30;20095;-85
2022/04/22 09:02:49;;;;;;;4.22;3.20;;;;;;;;;;4738962;30;20104;-85
2022/04/22 09:05:15;;;;;;;7.15;2.55;;;;;;;;;;4738786;30;20064;-86
2022/04/22 09:07:42;;;;;;;6.00;2.70;;;;;;;;;;4709429;30;20053;-85
2022/04/22 09:10:09;;;;;;;3.92;2.55;;;;;;;;;;4709347;30;20176;-85
2022/04/22 09:12:35;;;;;;;7.30;3.38;;;;;;;;;;4738841;30;20106;-85
2022/04/22 09:15:01;;;;;;;3.83;2.63;;;;;;;;;;4738023;30;20060;-85
2022/04/22 09:17:28;;;;;;;4.45;2.65;;;;;;;;;;4739059;30;20044;-85
2022/04/22 09:19:57;;;;;;;3.95;2.92;;;;;;;;;;4709429;30;20056;-85
2022/04/22 09:22:24;;;;;;;3.65;2.75;;;;;;;;;;4737957;30;20057;-86
2022/04/22 09:24:54;;;;;;;5.70;2.90;;;;;;;;;;4738046;30;20053;-87
2022/04/22 09:27:30;;;;;;;7.20;3.70;;;;;;;;;;4710084;30;20048;-87
2022/04/22 09:29:57;;;;;;;5.90;2.80;;;;;;;;;;4723881;30;20060;-86
2022/04/22 09:32:23;;;;;;;3.15;2.58;;;;;;;;;;4709841;30;20494;-86
2022/04/22 09:34:49;;;;;;;5.47;3.60;;;;;;;;;;4708775;30;20105;-86
2022/04/22 09:42:47;;;;;;;7.30;3.15;;;;;;;;;;4738575;30;20551;-87
2022/04/22 09:45:14;;;;;;;3.92;2.88;;;;;;;;;;4723381;30;20061;-86
2022/04/22 09:47:41;;;;;;;4.28;2.72;;;;;;;;;;4709067;30;20559;-86
2022/04/22 09:50:10;;;;;;;6.15;2.78;;;;;;;;;;4738438;30;20110;-87
2022/04/22 09:52:38;;;;;;;6.63;2.65;;;;;;;;;;4738371;30;20048;-85
2022/04/22 09:55:08;;;;;;;4.15;2.58;;;;;;;;;;4723734;30;20189;-86
2022/04/22 09:57:54;;;;;;;4.50;2.80;;;;;;;;;;4708430;30;20057;-87
2022/04/22 10:00:24;;;;;;;4.93;3.40;;;;;;;;;;4737747;30;20076;-86
2022/04/22 10:02:51;;;;;;;9.68;2.75;;;;;;;;;;4709133;30;20057;-87
2022/04/22 10:05:25;;;;;;;2.70;2.40;;;14.40;99.90;;;;;;4711351;30;20416;-86
2022/04/22 10:07:52;;;;;;;5.00;2.80;;;;;;;;;;4704963;30;20057;-85
2022/04/22 10:10:19;;;;;;;5.38;3.13;;;;;;;;;;4720784;30;20056;-87
2022/04/22 10:12:48;;;;;;;9.00;3.03;;;;;;;;;;4721548;30;20391;-87
2022/04/22 10:15:16;;;;;;;7.55;2.88;;;;;;;;;;4705785;30;20071;-86
2022/04/22 10:17:44;;;;;;;2.88;2.55;;;;;;;;;;4720560;30;20135;-87
2022/04/22 10:20:10;;;;;;;5.45;2.92;;;;;;;;;;4720128;30;20136;-87
2022/04/22 10:22:36;;;;;;;4.05;3.00;;;;;;;;;;4720505;30;20586;-86
2022/04/22 10:25:04;;;;;;;5.82;3.50;;;14.60;99.90;;;;;;4705108;30;20507;-85
2022/04/22 10:27:37;;;;;;;5.50;2.88;;;;;;;;;;4691335;30;20067;-86
2022/04/22 10:30:05;;;;;;;4.88;3.45;;;;;;;;;;4719204;30;20064;-87
2022/04/22 10:32:33;;;;;;;6.18;3.42;;;;;;;;;;4720326;30;20522;-86
2022/04/22 10:35:00;;;;;;;4.35;3.13;;;;;;;;;;4719412;30;20053;-86
2022/04/22 10:37:27;;;;;;;14.32;3.85;;;;;;;;;;4690799;30;20103;-86
2022/04/22 10:39:57;;;;;;;4.07;3.15;;;;;;;;;;4718456;30;20415;-86
2022/04/22 10:42:32;;;;;;;9.88;3.08;;;;;;;;;;4719327;30;20052;-86
2022/04/22 10:47:49;;;;;;;4.43;3.50;;;;;;;;;;4703384;30;20148;-86
2022/04/22 10:50:29;;;;;;;3.90;3.25;;;;;;;;;;4717444;30;20515;-86
2022/04/22 10:53:07;;;;;;;12.27;3.50;;;15.20;99.90;;;;;;4702929;30;20054;-87
2022/04/22 10:55:34;;;;;;;6.38;3.33;;;15.20;99.90;;;;;;4719105;30;20057;-86
2022/04/22 10:58:13;;;;;;;8.70;3.92;;;;;;;;;;4703039;30;20095;-86
2022/04/22 11:00:42;;;;;;;4.03;3.25;;;;;;;;;;4688620;30;20057;-87
2022/04/22 11:03:19;;;;;;;4.63;3.45;;;;;;;;;;4689540;30;20049;-85
2022/04/22 11:05:51;;;;;;;4.35;3.20;;;;;;;;;;4688942;30;20061;-86
2022/04/22 11:08:20;;;;;;;7.65;3.42;;;;;;;;;;4719209;30;20526;-84
2022/04/22 11:10:46;;;;;;;9.32;4.32;;;;;;;;;;4719890;30;20053;-86
2022/04/22 11:13:31;;;;;;;5.90;3.55;;;15.70;99.90;;;;;;4719332;30;20416;-85
2022/04/22 11:15:58;;;;;;;3.25;2.83;;;15.50;99.90;;;;;;4703604;30;20107;-85
2022/04/22 11:18:25;;;;;;;6.57;3.10;;;;;;;;;;4719275;30;20049;-85
2022/04/22 11:20:58;;;;;;;5.05;3.55;;;15.70;99.90;;;;;;4717838;30;20063;-86
2022/04/22 11:23:24;;;;;;;3.40;3.10;;;;;;;;;;4703406;30;20414;-86
2022/04/22 11:25:51;;;;;;;4.35;3.30;;;;;;;;;;4718787;30;20053;-86
2022/04/22 11:28:19;;;;;;;5.65;3.85;;;;;;;;;;4689164;30;20496;-85
2022/04/22 11:30:45;;;;;;;3.70;3.05;;;;;;;;;;4703535;30;20515;-85
2022/04/22 11:33:26;;;;;;;5.45;3.58;;;;;;;;;;4719291;30;20056;-85
2022/04/22 11:35:56;;;;;;;5.95;3.85;;;15.80;99.90;;;;;;4717979;30;20061;-85
2022/04/22 11:38:22;;;;;;;4.57;4.00;;;;;;;;;;4689363;30;20049;-85
2022/04/22 11:40:52;;;;;;;7.18;4.07;;;;;;;;;;4717116;30;20045;-85
2022/04/22 11:43:18;;;;;;;5.40;3.90;;;16.00;99.90;;;;;;4689141;30;20053;-87
2022/04/22 11:45:46;;;;;;;7.57;3.88;;;16.10;99.90;;;;;;4688775;30;20488;-85
2022/04/22 11:48:13;;;;;;;5.40;3.65;;;16.20;99.90;;;;;;4704085;30;20056;-84
2022/04/22 11:50:41;;;;;;;3.85;3.35;;;16.30;99.90;;;;;;4688652;30;20060;-86
2022/04/22 11:53:14;;;;;;;8.43;4.15;;;;;;;;;;4688960;30;20053;-87
2022/04/22 11:55:43;;;;;;;4.47;4.07;;;;;;;;;;4718293;30;20515;-86
2022/04/22 11:58:16;;;;;;;4.05;3.40;;;16.20;99.90;;;;;;4717153;30;20053;-86
2022/04/22 12:06:16;;;;;;;8.65;5.68;;;;;;;;;;4734967;30;20059;-85
2022/04/22 12:08:51;;;;;;;6.60;3.40;;;16.50;99.90;;;;;;4705480;30;20549;-85
2022/04/22 12:11:17;;;;;;;6.38;3.90;;;;;;;;;;4735584;30;20048;-86
2022/04/22 12:13:45;;;;;;;11.40;3.95;;;16.70;99.90;;;;;;4735720;30;20049;-86
2022/04/22 12:16:11;;;;;;;4.32;3.53;;;;;;;;;;4705773;30;20052;-87
2022/04/22 12:18:39;;;;;;;6.75;4.47;;;;;;;;;;4706187;30;20056;-87
2022/04/22 12:21:06;;;;;;;4.97;3.85;;;;;;;;;;4736070;30;20422;-86
2022/04/22 12:23:40;;;;;;;4.10;3.70;;;16.70;99.90;;;;;;4737463;30;20052;-87
2022/04/22 12:26:36;;;;;;;5.38;4.15;;;17.00;99.90;;;;;;4738684;30;20052;-89
2022/04/22 12:29:16;;;;;;;5.05;4.07;;;16.80;99.90;;;;;;4708203;30;20106;-86
2022/04/22 12:31:47;;;;;;;6.65;4.18;;;16.80;99.90;;;;;;4738667;30;20525;-88
2022/04/22 12:34:15;;;;;;;6.38;4.78;;;17.10;99.90;;;;;;4737623;30;20064;-88
2022/04/22 12:36:52;;;;;;;6.28;4.85;;;17.00;99.90;;;;;;4708838;30;20060;-86
2022/04/22 12:39:38;;;;;;;11.52;3.70;;;17.20;99.90;;;;;;4708419;30;20049;-86
2022/04/22 12:42:05;;;;;;;5.55;3.97;;;17.00;99.90;;;;;;4738173;30;20145;-86
2022/04/22 12:44:31;;;;;;;5.07;4.28;;;;;;;;;;4707883;30;20580;-87
2022/04/22 12:52:34;;;;;;;6.15;4.20;;;17.30;99.90;;;;;;4722559;30;20562;-86
2022/04/22 12:55:08;;;;;;;5.82;4.57;;;17.40;99.90;;;;;;4722052;30;20088;-86
2022/04/22 12:57:35;;;;;;;;;;;17.40;99.90;;;;;;4737203;30;20084;-88
2022/04/22 13:00:01;;;;;;;6.65;4.93;;;;;;;;;;4736617;30;20396;-88
2022/04/22 13:02:29;;;;;;;6.47;4.10;;;17.40;99.90;;;;;;4707609;30;20060;-87
2022/04/22 13:05:00;;;;;;;7.80;4.65;;;17.50;99.90;;;;;;4727766;30;20143;-85
2022/04/22 13:07:40;;;;;;;8.50;4.47;;;17.60;99.90;;;;;;4690138;30;20096;-86
2022/04/22 13:10:10;;;;;;;6.88;4.30;;;17.50;99.90;;;;;;4704384;30;20053;-87
2022/04/22 13:12:39;;;;;;;5.53;4.60;;;17.90;99.90;;;;;;4690353;30;20105;-87
2022/04/22 13:15:13;;;;;;;7.53;4.47;;;17.80;99.90;;;;;;4704819;30;20100;-87
2022/04/22 13:17:43;;;;;;;7.85;4.57;;;17.90;99.90;;;;;;4691646;30;20107;-85
2022/04/22 13:20:10;;;;;;;6.50;4.20;;;17.80;99.90;;;;;;4704465;30;20507;-87
2022/04/22 13:22:36;;;;;;;8.35;5.30;;;18.00;99.90;;;;;;4689979;30;20053;-87
2022/04/22 13:25:03;;;;;;;9.68;4.35;;;18.00;99.90;;;;;;4690205;30;20547;-87
2022/04/22 13:27:29;;;;;;;6.25;4.55;;;;;;;;;;4690278;30;20049;-86
2022/04/22 13:29:55;;;;;;;4.78;4.38;;;;;;;;;;4718617;30;20503;-87
2022/04/22 13:32:21;;;;;;;5.90;4.90;;;18.00;99.90;;;;;;4718666;30;20064;-87
2022/04/22 13:34:47;;;;;;;6.10;4.97;;;;;;;;;;4691389;30;20053;-87
2022/04/22 13:37:13;;;;;;;6.93;4.80;;;;;;;;;;4720867;30;20136;-86
2022/04/22 13:39:39;;;;;;;9.35;4.57;;;;;;;;;;4691916;30;20049;-87
2022/04/22 13:42:05;;;;;;;7.35;4.80;;;;;;;;;;4691146;30;20056;-87
2022/04/22 13:52:47;;;;;;;7.53;4.85;;;;;;;;;;4706545;30;20064;-86
2022/04/22 13:55:13;;;;;;;9.77;4.55;;;;;;;;;;4690896;30;20063;-85
2022/04/22 13:57:39;;;;;;;6.28;4.30;;;18.30;99.90;;;;;;4720749;30;20056;-87
2022/04/22 14:00:06;;;;;;;6.30;5.45;;;18.60;99.90;;;;;;4720037;30;20518;-86
2022/04/22 14:02:32;;;;;;;6.03;4.80;;;;;;;;;;4705136;30;20081;-86
2022/04/22 14:04:58;;;;;;;7.55;5.22;;;18.60;99.90;;;;;;4719924;30;20116;-86
2022/04/22 14:07:24;;;;;;;7.05;4.53;;;;;;;;;;4704821;30;20136;-86
2022/04/22 14:09:50;;;;;;;7.93;4.45;;;;;;;;;;4720023;30;20500;-86
2022/04/22 14:12:16;;;;;;;10.68;5.07;;;;;;;;;;4719564;30;20053;-86
2022/04/22 14:14:43;;;;;;;8.02;4.88;;;;;;;;;;4719882;30;20065;-86
2022/04/22 14:17:10;;;;;;;12.98;5.32;;;;;;;;;;4719978;30;20064;-86
2022/04/22 14:19:36;;;;;;;8.38;5.40;;;;;;;;;;4705134;30;20047;-86
2022/04/22 14:22:02;;;;;;;14.75;5.47;;;18.40;99.90;;;;;;4719197;30;20049;-86
2022/04/22 14:24:31;;;;;;;12.48;6.32;;;;;;;;;;4690347;30;20080;-86
2022/04/22 14:27:01;;;;;;;8.25;4.88;;;18.70;99.90;;;;;;4719203;30;20060;-86
2022/04/22 14:29:27;;;;;;;7.80;5.45;;;;;;;;;;4719858;30;20506;-87
2022/04/22 14:31:54;;;;;;;13.07;5.25;;;;;;;;;;4719900;30;20053;-85
2022/04/22 14:34:20;;;;;;;10.85;6.80;;;;;;;;;;4720293;30;20049;-86
2022/04/22 14:36:49;;;;;;;12.60;5.93;;;18.50;99.90;;;;;;4690526;30;20061;-86
2022/04/22 14:39:15;;;;;;;12.35;5.43;;;;;;;;;;4703764;30;20057;-86
2022/04/22 14:41:42;;;;;;;12.95;6.95;;;;;;;;;;4704238;30;20049;-86
2022/04/22 14:44:09;;;;;;;14.43;6.70;;;;;;;;;;4720148;30;20053;-86
2022/04/22 14:46:39;;;;;;;10.98;4.80;;;;;;;;;;4718672;30;20511;-86
2022/04/22 14:49:06;;;;;;;11.45;5.85;;;;;;;;;;4719921;30;20070;-85
2022/04/22 14:51:32;;;;;;;12.20;6.47;;;;;;;;;;4720125;30;20049;-87
2022/04/22 14:53:58;;;;;;;12.63;6.40;;;;;;;;;;4718697;30;20113;-86
2022/04/22 14:56:26;;;;;;;9.52;5.50;;;18.40;99.90;;;;;;4718609;30;20111;-85
2022/04/22 14:58:52;;;;;;;10.30;6.50;;;;;;;;;;4704676;30;20048;-86
2022/04/22 15:01:18;;;;;;;7.97;5.65;;;;;;;;;;4703828;30;20060;-87
2022/04/22 15:03:45;;;;;;;10.23;5.38;;;;;;;;;;4719181;30;20450;-87
2022/04/22 15:06:11;;;;;;;8.27;4.97;;;;;;;;;;4737308;30;20067;-86
2022/04/22 15:08:37;;;;;;;10.35;6.05;;;;;;;;;;4736781;30;20060;-86
2022/04/22 15:11:03;;;;;;;11.27;6.32;;;;;;;;;;4736032;30;20411;-87
2022/04/22 15:13:33;;;;;;;14.95;6.47;;;;;;;;;;4735890;30;20060;-86
2022/04/22 15:16:00;;;;;;;8.70;5.70;;;18.60;99.90;;;;;;4737040;30;20057;-86
2022/04/22 15:24:10;;;;;;;7.32;5.18;;;;;;;;;;4721803;30;20104;-87
2022/04/22 15:26:43;;;;;;;11.32;6.18;;;18.70;99.90;;;;;;4707363;30;20064;-87
2022/04/22 15:29:13;;;;;;;7.20;5.28;;;18.70;99.90;;;;;;4721241;30;20049;-87
2022/04/22 15:31:42;;;;;;;12.05;5.85;;;18.70;99.90;;;;;;4737097;30;20048;-86
2022/04/22 15:34:08;;;;;;;10.25;5.72;;;;;;;;;;4721898;30;20064;-87
2022/04/22 15:36:35;;;;;;;6.70;4.55;;;;;;;;;;4736656;30;20118;-85
2022/04/22 15:39:03;;;;;;;10.23;5.40;;;;;;;;;;4721600;30;20049;-87